Aeroporto :







RITROVATECI SU...

 
LOGIN :

Iscrizione | Disclaimer

   EN    FR    IT 

 









Sommario :    VFR   VFR Marginale   IFR   IFR Intensivo   IFR Molto Intensivo
Visibilità : 
Base nubi : 
>= 8 km
>= 3000ft
5 / 8 km
1000 / 3000 ft
1500m / 5 km
500 / 1000 ft
800 / 1500m
200 / 500 ft
< 800m
< 200 ft
Simboli :   Temporali  Nebbia  Neve Forte  Precipitazioni Forti  Vento > 20 kt






- Altitudine del aeroporto : 198 ft
- Codice IATA : STM


SBSN - Maestro Wilson Fonseca Int.

ULTIMO METAR :
  • 200500Z 09006KT 9999 FEW017 27/25 Q1010

METARs OBSOLETI :
  • 200400Z 05002KT 9999 FEW017 26/25 Q1011
  • 200300Z 11004KT 9999 FEW016 28/25 Q1011

TAF TAF SBSN
Valido dal 20 a 06 ore il 21 a 06 ore UTC


200240Z 2006/2106 12005KT 7000 SCT025 TX33/2017Z TN24/2106Z
BECMG 2006/2009 09006KT TS SCT020 FEW030CB
BECMG 2009/2012 07006KT NSW SCT020
BECMG 2018/2020 13006KT SCT025 FEW030TCU
BECMG 2100/2102 11005KT SCT020 RMK PGW
FIR SBAZ / Sudamerica



MetMap, La meteo Aeronautica in un colpo d'occhio ! - Copyright ORBIFLY Dicembre 2007 - Disclaimer

ORBIFLY MET'MAP TEAM :

Programmazione e sviluppo : Alexandra Zaïnal
Concezione : Baudouin d'Aumeries
Aiuto per la programmazione : Marc-Olivier Méhu
Supporto tecnico e logistico : Manuel Goepfert
Aiuto per la traduzione : Arnaldo La Scala

Contatto : metmap@orbifly.com




FONTI E CREDITI :

   NOAA